createdAt,value
2018-01-13T00:04:41.666Z,100607.39
2018-01-13T00:10:45.190Z,100603.69
2018-01-13T00:16:48.707Z,100610.67
2018-01-13T00:22:52.307Z,100610.89
2018-01-13T00:28:56.683Z,100610.33
2018-01-13T00:35:00.972Z,100610.33
2018-01-13T00:41:05.271Z,100611.33
2018-01-13T00:47:08.758Z,100607.17
2018-01-13T00:53:12.287Z,100602.66
2018-01-13T00:59:15.754Z,100612.73
2018-01-13T01:05:19.229Z,100610.22
2018-01-13T01:11:22.692Z,100614.61
2018-01-13T01:17:27.039Z,100604.78
2018-01-13T01:23:30.905Z,100607.97
2018-01-13T01:29:34.387Z,100607.70
2018-01-13T01:35:37.868Z,100594.34
2018-01-13T01:41:41.338Z,100602.20
2018-01-13T01:47:44.803Z,100603.72
2018-01-13T01:53:48.300Z,100602.84
2018-01-13T01:59:52.536Z,100607.48
2018-01-13T02:05:56.870Z,100598.52
2018-01-13T02:12:00.372Z,100604.94
2018-01-13T02:18:04.071Z,100596.05
2018-01-13T02:24:08.320Z,100597.42
2018-01-13T02:30:12.192Z,100593.55
2018-01-13T02:36:15.755Z,100587.66
2018-01-13T02:42:20.007Z,100580.19
2018-01-13T02:48:23.773Z,100582.70
2018-01-13T02:54:27.713Z,100586.27
2018-01-13T03:00:31.205Z,100594.64
2018-01-13T03:06:34.690Z,100585.31
2018-01-13T03:12:38.161Z,100581.30
2018-01-13T03:18:41.638Z,100593.05
2018-01-13T03:24:45.145Z,100587.88
2018-01-13T03:30:48.671Z,100588.35
2018-01-13T03:36:52.936Z,100586.35
2018-01-13T03:42:56.936Z,100582.49
2018-01-13T03:49:00.561Z,100583.47
2018-01-13T03:55:05.233Z,100582.98
2018-01-13T04:01:08.719Z,100577.88
2018-01-13T04:07:12.194Z,100567.13
2018-01-13T04:13:15.673Z,100565.34
2018-01-13T04:19:19.141Z,100564.52
2018-01-13T04:25:22.622Z,100564.15
2018-01-13T04:31:26.958Z,100562.63
2018-01-13T04:37:30.454Z,100561.98
2018-01-13T04:43:34.925Z,100560.66
2018-01-13T04:49:38.401Z,100555.84
2018-01-13T04:55:41.990Z,100555.36
2018-01-13T05:01:45.534Z,100554.97
2018-01-13T05:07:49.032Z,100552.64
2018-01-13T05:13:53.302Z,100554.16
2018-01-13T05:19:56.802Z,100561.53
2018-01-13T05:26:00.376Z,100561.46
2018-01-13T05:32:03.913Z,100571.94
2018-01-13T05:38:07.421Z,100564.00
2018-01-13T05:44:11.749Z,100561.80
2018-01-13T05:50:15.229Z,100554.88
2018-01-13T05:56:18.715Z,100555.23
2018-01-13T06:02:22.948Z,100557.37
2018-01-13T06:08:27.025Z,100556.28
2018-01-13T06:14:30.508Z,100558.61
2018-01-13T06:20:33.969Z,100558.58
2018-01-13T06:26:37.494Z,100564.59
2018-01-13T06:32:41.039Z,100556.04
2018-01-13T06:38:45.375Z,100557.08
2018-01-13T06:44:48.989Z,100565.56
2018-01-13T06:50:53.658Z,100564.29
2018-01-13T06:56:57.146Z,100561.61
2018-01-13T07:03:01.401Z,100561.88
2018-01-13T07:09:05.687Z,100571.16
2018-01-13T07:15:09.936Z,100585.77
2018-01-13T07:21:13.428Z,100590.50
2018-01-13T07:27:16.980Z,100592.26
2018-01-13T07:33:22.117Z,100595.86
2018-01-13T07:39:26.319Z,100594.23
2018-01-13T07:45:30.584Z,100588.56
2018-01-13T07:51:34.200Z,100581.80
2018-01-13T07:57:37.676Z,100587.21
2018-01-13T08:03:41.182Z,100584.39
2018-01-13T08:09:44.670Z,100584.74
2018-01-13T08:15:48.207Z,100593.30
2018-01-13T08:21:51.670Z,100594.08
2018-01-13T08:27:55.589Z,100594.43
2018-01-13T08:33:59.136Z,100597.67
2018-01-13T08:40:03.376Z,100601.24
2018-01-13T08:46:06.845Z,100592.61
2018-01-13T08:52:10.390Z,100603.34
2018-01-13T08:58:15.397Z,100601.61
2018-01-13T09:04:18.922Z,100595.12
2018-01-13T09:10:22.496Z,100598.25
2018-01-13T09:16:26.138Z,100602.89
2018-01-13T09:22:29.762Z,100608.25
2018-01-13T09:28:33.243Z,100611.97
2018-01-13T09:34:36.723Z,100616.16
2018-01-13T09:40:40.270Z,100623.91
2018-01-13T09:46:43.753Z,100624.20
2018-01-13T09:52:48.015Z,100627.21
2018-01-13T09:58:52.422Z,100624.64
2018-01-13T10:04:56.395Z,100617.15
2018-01-13T10:11:00.001Z,100608.91
2018-01-13T10:17:03.509Z,100595.00
2018-01-13T10:23:07.024Z,100593.84
2018-01-13T10:29:11.315Z,100590.45
2018-01-13T10:35:15.569Z,100590.73
2018-01-13T10:41:19.187Z,100585.06
2018-01-13T10:47:22.922Z,100586.33
2018-01-13T10:53:26.415Z,100580.16
2018-01-13T10:59:31.562Z,100577.69
2018-01-13T11:05:35.051Z,100574.27
2018-01-13T11:11:38.722Z,100579.69
2018-01-13T11:17:42.242Z,100574.55
2018-01-13T11:23:45.975Z,100573.71
2018-01-13T11:29:49.460Z,100570.89
2018-01-13T11:35:53.059Z,100570.56
2018-01-13T11:41:57.192Z,100567.91
2018-01-13T11:48:00.673Z,100562.87
2018-01-13T11:54:04.137Z,100563.63
2018-01-13T12:00:08.376Z,100560.03
2018-01-13T12:06:11.860Z,100556.52
2018-01-13T12:12:16.090Z,100551.58
2018-01-13T12:18:19.559Z,100548.84
2018-01-13T12:24:23.026Z,100549.59
2018-01-13T12:30:26.902Z,100539.59
2018-01-13T12:36:30.589Z,100528.47
2018-01-13T12:42:34.114Z,100534.58
2018-01-13T12:48:37.766Z,100537.35
2018-01-13T12:54:41.239Z,100532.33
2018-01-13T13:00:45.758Z,100530.97
2018-01-13T13:06:49.213Z,100524.30
2018-01-13T13:12:52.826Z,100522.82
2018-01-13T13:18:56.337Z,100516.38
2018-01-13T13:24:59.934Z,100516.77
2018-01-13T13:31:04.243Z,100508.22
2018-01-13T13:37:07.710Z,100506.93
2018-01-13T13:43:11.344Z,100501.80
2018-01-13T13:49:14.926Z,100497.05
2018-01-13T13:55:18.455Z,100493.56
2018-01-13T14:01:28.593Z,100499.15
2018-01-13T14:07:25.845Z,100497.75
2018-01-13T14:13:30.065Z,100496.98
2018-01-13T14:19:33.540Z,100492.94
2018-01-13T14:25:37.877Z,100485.20
2018-01-13T14:31:41.341Z,100486.02
2018-01-13T14:37:44.814Z,100486.84
2018-01-13T14:43:48.279Z,100485.55
2018-01-13T14:49:51.751Z,100477.42
2018-01-13T14:55:55.998Z,100472.67
2018-01-13T15:01:59.591Z,100476.08
2018-01-13T15:08:03.056Z,100478.91
2018-01-13T15:14:06.561Z,100475.99
2018-01-13T15:20:10.031Z,100480.25
2018-01-13T15:26:13.510Z,100485.30
2018-01-13T15:32:16.978Z,100490.74
2018-01-13T15:38:20.475Z,100482.95
2018-01-13T15:44:24.255Z,100482.86
2018-01-13T15:50:28.701Z,100475.33
2018-01-13T15:56:32.259Z,100479.23
2018-01-13T16:02:35.738Z,100478.28
2018-01-13T16:08:39.352Z,100470.47
2018-01-13T16:14:42.868Z,100468.32
2018-01-13T16:20:47.104Z,100470.22
2018-01-13T16:26:50.608Z,100472.16
2018-01-13T16:32:54.215Z,100470.48
2018-01-13T16:38:57.720Z,100471.98
2018-01-13T16:45:01.201Z,100474.40
2018-01-13T16:51:04.700Z,100467.48
2018-01-13T16:57:08.214Z,100470.30
2018-01-13T17:03:11.706Z,100463.05
2018-01-13T17:09:15.197Z,100466.34
2018-01-13T17:15:18.728Z,100471.52
2018-01-13T17:21:22.417Z,100458.88
2018-01-13T17:27:26.145Z,100459.38
2018-01-13T17:33:30.435Z,100463.39
2018-01-13T17:39:33.884Z,100455.15
2018-01-13T17:45:37.381Z,100454.42
2018-01-13T17:51:40.934Z,100449.98
2018-01-13T17:57:44.482Z,100442.81
2018-01-13T18:03:48.131Z,100447.98
2018-01-13T18:09:51.664Z,100442.95
2018-01-13T18:15:55.340Z,100440.20
2018-01-13T18:21:58.972Z,100446.41
2018-01-13T18:28:02.657Z,100452.92
2018-01-13T18:34:06.114Z,100446.27
2018-01-13T18:40:09.579Z,100444.27
2018-01-13T18:46:13.002Z,100444.05
2018-01-13T18:52:16.481Z,100440.98
2018-01-13T18:58:20.025Z,100431.78
2018-01-13T19:04:23.997Z,100430.75
2018-01-13T19:10:27.505Z,100428.81
2018-01-13T19:16:31.943Z,100444.62
2018-01-13T19:22:35.435Z,100440.29
2018-01-13T19:28:39.671Z,100447.98
2018-01-13T19:34:43.149Z,100435.84
2018-01-13T19:40:46.772Z,100426.52
2018-01-13T19:46:50.398Z,100417.13
2018-01-13T19:52:54.096Z,100408.55
2018-01-13T19:58:57.628Z,100414.29
2018-01-13T20:05:01.120Z,100425.26
2018-01-13T20:11:04.891Z,100428.34
2018-01-13T20:17:08.555Z,100427.64
2018-01-13T20:23:12.778Z,100430.06
2018-01-13T20:29:16.304Z,100426.61
2018-01-13T20:35:19.753Z,100427.09
2018-01-13T20:41:23.232Z,100415.75
2018-01-13T20:47:26.907Z,100412.75
2018-01-13T20:53:30.410Z,100414.77
2018-01-13T20:59:34.716Z,100411.62
2018-01-13T21:05:38.171Z,100413.05
2018-01-13T21:11:41.687Z,100410.30
2018-01-13T21:17:46.054Z,100418.78
2018-01-13T21:23:50.321Z,100423.17
2018-01-13T21:29:54.134Z,100424.58
2018-01-13T21:35:58.078Z,100425.12
2018-01-13T21:42:01.729Z,100413.22
2018-01-13T21:48:05.295Z,100416.63
2018-01-13T21:54:08.788Z,100417.16
2018-01-13T22:00:12.256Z,100414.80
2018-01-13T22:06:15.887Z,100408.41
2018-01-13T22:12:19.481Z,100410.16
2018-01-13T22:18:24.070Z,100409.72
2018-01-13T22:24:27.602Z,100398.80
2018-01-13T22:30:31.100Z,100402.66
2018-01-13T22:36:34.647Z,100391.19
2018-01-13T22:42:38.146Z,100384.60
2018-01-13T22:48:41.616Z,100391.77
2018-01-13T22:54:45.155Z,100374.85
2018-01-13T23:00:54.318Z,100372.17
2018-01-13T23:06:57.803Z,100363.60
2018-01-13T23:13:01.392Z,100357.41
2018-01-13T23:19:04.871Z,100366.91
2018-01-13T23:25:08.370Z,100370.98
2018-01-13T23:31:11.877Z,100375.72
2018-01-13T23:37:15.447Z,100369.16
2018-01-13T23:43:18.937Z,100377.34
2018-01-13T23:49:22.403Z,100369.61
2018-01-13T23:55:27.098Z,100370.27
